Time;durP1;ratioP1;P1;durP2;ratioP2;P2;SDS_P1;SDS_P2;PMS_P1;PMS_P2;Temp;Humidity;BMP_temperature;BMP_pressure;BME280_temperature;BME280_humidity;BME280_pressure;Samples;Min_cycle;Max_cycle;Signal;HPM_P1;HPM_P2
2021/12/07 00:01:38;;;;;;;17.23;10.63;;;;;;;0.84;94.07;100422.34;5030298;28;20486;-60
2021/12/07 00:04:04;;;;;;;16.87;10.83;;;;;;;0.88;94.33;100431.66;5033186;28;20382;-59
2021/12/07 00:06:30;;;;;;;18.30;11.67;;;;;;;0.82;94.47;100432.09;5034048;28;20029;-59
2021/12/07 00:08:56;;;;;;;18.57;11.90;;;;;;;0.82;94.19;100434.69;5032844;28;20033;-59
2021/12/07 00:11:25;;;;;;;18.80;11.77;;;;;;;0.79;94.50;100430.53;5034105;28;20021;-59
2021/12/07 00:13:51;;;;;;;19.97;12.47;;;;;;;0.82;94.86;100439.91;5034323;28;20026;-59
2021/12/07 00:16:19;;;;;;;19.47;12.57;;;;;;;0.84;94.99;100432.78;5033667;28;20029;-59
2021/12/07 00:18:46;;;;;;;19.37;12.90;;;;;;;0.86;94.71;100437.91;5033347;28;20047;-59
2021/12/07 00:21:13;;;;;;;18.90;13.07;;;;;;;0.87;95.34;100448.25;5030378;28;20532;-59
2021/12/07 00:23:39;;;;;;;21.33;13.33;;;;;;;0.94;94.79;100448.69;5033296;28;20124;-60
2021/12/07 00:26:04;;;;;;;22.50;14.03;;;;;;;0.95;94.74;100450.34;5032198;28;20108;-59
2021/12/07 00:28:30;;;;;;;23.20;15.10;;;;;;;0.97;95.27;100453.66;5032011;28;20036;-59
2021/12/07 00:30:57;;;;;;;23.77;14.40;;;;;;;1.00;95.22;100455.22;5032853;28;20528;-60
2021/12/07 00:35:52;;;;;;;26.77;15.83;;;;;;;1.06;95.29;100458.25;5029751;28;20045;-59
2021/12/07 00:38:22;;;;;;;24.47;15.10;;;;;;;1.10;95.57;100464.09;5030408;28;20025;-58
2021/12/07 00:40:48;;;;;;;25.23;16.63;;;;;;;1.13;95.84;100469.06;5032758;28;20087;-59
2021/12/07 00:43:15;;;;;;;25.50;16.17;;;;;;;1.13;96.08;100470.88;5032843;28;20626;-59
2021/12/07 00:45:45;;;;;;;26.40;16.90;;;;;;;1.17;96.45;100475.75;5033266;28;20071;-59
2021/12/07 00:48:11;;;;;;;26.30;16.57;;;;;;;1.23;96.49;100479.69;5032614;28;20093;-59
2021/12/07 00:50:37;;;;;;;28.23;17.37;;;;;;;1.35;96.43;100483.22;5032902;28;20709;-60
2021/12/07 00:53:05;;;;;;;26.70;16.53;;;;;;;1.41;96.55;100485.41;5033413;28;20044;-59
2021/12/07 00:55:34;;;;;;;28.73;17.87;;;;;;;1.38;96.99;100483.00;5033310;28;20038;-59
2021/12/07 00:58:01;;;;;;;32.23;18.40;;;;;;;1.47;96.92;100492.78;5030571;28;20040;-59
2021/12/07 01:00:30;;;;;;;28.17;17.27;;;;;;;1.53;96.81;100491.50;5031776;28;20037;-59
2021/12/07 01:02:55;;;;;;;33.40;17.13;;;;;;;1.66;96.82;100501.91;5031976;28;20129;-59
2021/12/07 01:05:27;;;;;;;27.87;16.97;;;;;;;1.67;96.54;100498.34;5033182;28;20152;-59
2021/12/07 01:08:11;;;;;;;28.83;15.88;;;;;;;1.83;96.62;100502.47;5032022;28;20647;-59
2021/12/07 01:27:04;;;;;;;28.13;15.83;;;;;;;2.07;97.63;100546.06;5030848;28;20064;-59
2021/12/07 01:29:30;;;;;;;33.20;16.77;;;;;;;2.09;97.68;100555.47;5031522;28;20053;-59
2021/12/07 01:32:10;;;;;;;29.53;15.23;;;;;;;2.09;97.55;100552.84;5033071;28;20037;-59
2021/12/07 01:40:32;;;;;;;30.97;15.13;;;;;;;2.09;98.32;100559.84;5031760;28;20390;-59
2021/12/07 01:45:53;;;;;;;33.03;14.57;;;;;;;2.10;98.23;100566.75;5029556;28;20041;-59
2021/12/07 01:50:07;;;;;;;31.60;13.60;;;;;;;2.13;97.99;100577.00;5031845;28;20045;-59
2021/12/07 02:01:41;;;;;;;32.37;11.03;;;;;;;2.22;98.41;100586.78;5030924;28;20036;-59
2021/12/07 02:04:06;;;;;;;25.90;10.27;;;;;;;2.26;98.35;100593.47;5032700;28;20518;-59
2021/12/07 02:06:31;;;;;;;30.30;9.50;;;;;;;2.29;97.52;100593.22;5031264;28;20033;-59
2021/12/07 02:08:57;;;;;;;27.60;9.00;;;;;;;2.36;97.55;100598.03;5032325;28;20029;-59
2021/12/07 02:11:22;;;;;;;24.43;8.53;;;;;;;2.34;97.79;100605.13;5031848;28;20052;-59
2021/12/07 02:16:15;;;;;;;27.30;8.03;;;;;;;2.38;98.30;100611.81;5030859;28;20102;-59
2021/12/07 02:18:41;;;;;;;24.80;7.40;;;;;;;2.47;97.29;100605.88;5030096;28;20402;-59
2021/12/07 02:21:22;;;;;;;27.90;7.00;;;;;;;2.51;97.78;100623.03;5031807;28;20041;-58
2021/12/07 02:23:48;;;;;;;29.40;7.67;;;;;;;2.49;97.48;100622.34;5022243;28;20025;-59
2021/12/07 02:26:14;;;;;;;25.90;6.37;;;;;;;2.48;97.32;100628.53;5029060;28;20037;-59
2021/12/07 02:28:40;;;;;;;21.20;6.43;;;;;;;2.47;97.38;100632.06;5030924;28;20471;-60
2021/12/07 02:31:08;;;;;;;25.40;6.40;;;;;;;2.45;97.21;100633.13;5030720;28;20029;-59
2021/12/07 02:33:33;;;;;;;25.67;6.10;;;;;;;2.44;97.50;100632.31;5032151;28;20037;-59
2021/12/07 02:35:59;;;;;;;23.43;5.63;;;;;;;2.48;96.84;100636.38;5030464;28;20045;-59
2021/12/07 02:38:24;;;;;;;19.53;5.20;;;;;;;2.50;96.49;100639.72;5031177;28;20041;-60
2021/12/07 02:40:49;;;;;;;28.80;5.40;;;;;;;2.48;96.61;100646.84;5028232;28;20033;-59
2021/12/07 02:43:15;;;;;;;21.67;5.03;;;;;;;2.49;96.68;100648.50;5028337;28;20029;-59
2021/12/07 02:45:40;;;;;;;25.70;5.67;;;;;;;2.48;96.89;100654.69;5030630;28;20029;-59
2021/12/07 02:48:05;;;;;;;28.27;5.10;;;;;;;2.44;97.24;100655.88;5029806;28;20493;-59
2021/12/07 02:50:33;;;;;;;22.00;4.87;;;;;;;2.45;97.41;100665.38;5030090;28;20041;-59
2021/12/07 02:52:58;;;;;;;23.13;4.70;;;;;;;2.40;97.43;100657.88;5028245;28;20033;-59
2021/12/07 02:55:23;;;;;;;22.27;5.27;;;;;;;2.47;96.86;100676.56;5027111;28;20033;-59
2021/12/07 02:57:49;;;;;;;24.20;5.30;;;;;;;2.40;97.01;100667.50;5030231;28;20068;-59
2021/12/07 03:00:20;;;;;;;26.67;4.73;;;;;;;2.38;96.93;100679.88;5029334;28;20746;-59
2021/12/07 03:03:02;;;;;;;25.07;5.10;;;;;;;2.42;96.76;100681.31;5029167;28;20057;-59
2021/12/07 03:27:48;;;;;;;19.77;4.20;;;;;;;2.22;96.77;100707.13;5031375;28;20444;-59
2021/12/07 03:30:13;;;;;;;20.63;4.70;;;;;;;2.19;96.66;100703.91;5031067;28;20037;-59
2021/12/07 03:32:38;;;;;;;21.07;4.40;;;;;;;2.20;97.07;100709.03;5029486;28;20037;-59
2021/12/07 03:35:04;;;;;;;21.77;4.33;;;;;;;2.19;96.78;100720.47;5031795;28;20513;-59
2021/12/07 03:37:29;;;;;;;23.73;4.67;;;;;;;2.18;97.08;100716.16;5030706;28;20658;-59
2021/12/07 03:39:55;;;;;;;23.10;4.20;;;;;;;2.20;96.98;100729.97;5033167;28;20049;-59
2021/12/07 03:42:20;;;;;;;23.07;4.50;;;;;;;2.21;97.03;100731.63;5033459;28;20034;-59
2021/12/07 03:44:45;;;;;;;18.97;4.53;;;;;;;2.20;96.84;100734.34;5034830;28;20513;-59
2021/12/07 03:47:10;;;;;;;22.83;4.87;;;;;;;2.19;96.69;100749.22;5033475;28;20033;-59
2021/12/07 03:49:36;;;;;;;17.93;4.67;;;;;;;2.22;96.55;100746.38;5034190;28;20425;-58
2021/12/07 03:52:01;;;;;;;20.87;4.30;;;;;;;2.22;96.73;100749.00;5034422;28;20041;-59
2021/12/07 03:54:26;;;;;;;24.87;4.33;;;;;;;2.17;96.58;100745.88;5033633;28;20053;-59
2021/12/07 03:56:51;;;;;;;22.97;4.07;;;;;;;2.21;96.66;100742.09;5034890;28;20033;-59
2021/12/07 03:59:17;;;;;;;28.87;4.50;;;;;;;2.21;96.64;100747.34;5035133;28;20026;-59
2021/12/07 04:01:42;;;;;;;21.57;4.40;;;;;;;2.20;96.58;100750.91;5032635;28;20033;-60
2021/12/07 04:04:08;;;;;;;19.40;4.30;;;;;;;2.24;95.97;100741.91;5034665;28;20044;-60
2021/12/07 04:06:33;;;;;;;25.10;4.63;;;;;;;2.19;96.66;100743.16;5033312;28;20037;-59
2021/12/07 04:08:58;;;;;;;20.50;4.50;;;;;;;2.17;96.69;100740.63;5034950;28;20133;-59
2021/12/07 04:11:24;;;;;;;21.37;4.33;;;;;;;2.18;96.74;100742.34;5033880;28;20037;-59
2021/12/07 04:13:49;;;;;;;20.43;4.90;;;;;;;2.19;96.47;100754.47;5031241;28;20061;-59
2021/12/07 04:16:16;;;;;;;20.73;4.33;;;;;;;2.11;96.43;100751.53;5028015;28;20052;-59
2021/12/07 04:18:41;;;;;;;24.23;4.27;;;;;;;2.17;96.36;100761.56;5031352;28;20036;-59
2021/12/07 04:21:07;;;;;;;17.20;4.17;;;;;;;2.14;96.61;100756.56;5034172;28;20398;-59
2021/12/07 04:23:34;;;;;;;22.97;4.10;;;;;;;2.11;96.50;100757.63;5031436;28;20037;-59
2021/12/07 04:26:00;;;;;;;21.37;4.33;;;;;;;2.13;96.38;100760.94;5033965;28;20072;-59
2021/12/07 04:28:25;;;;;;;23.20;4.30;;;;;;;2.14;96.34;100767.03;5033338;28;20470;-59
2021/12/07 04:30:51;;;;;;;21.73;4.23;;;;;;;2.14;95.99;100761.81;5032583;28;20060;-59
2021/12/07 04:33:16;;;;;;;24.40;4.47;;;;;;;2.16;96.03;100772.97;5032084;28;20110;-59
2021/12/07 04:35:45;;;;;;;20.47;4.40;;;;;;;2.15;95.87;100768.69;5033285;28;20104;-59
2021/12/07 04:38:11;;;;;;;22.03;3.87;;;;;;;2.17;95.89;100761.56;5032475;28;20029;-59
2021/12/07 04:40:37;;;;;;;17.77;3.87;;;;;;;2.22;95.59;100764.69;5033736;28;20095;-59
2021/12/07 04:43:04;;;;;;;19.87;3.50;;;;;;;2.22;95.34;100775.16;5032937;28;20367;-59
2021/12/07 04:59:22;;;;;;;20.33;4.20;;;;;;;2.25;96.19;100790.66;5002381;28;20496;-59
2021/12/07 05:01:47;;;;;;;22.03;3.80;;;;;;;2.24;96.00;100773.28;5006975;28;20047;-60
2021/12/07 05:04:18;;;;;;;22.37;4.30;;;;;;;2.30;95.30;100792.94;5015405;28;20172;-59
2021/12/07 05:06:50;;;;;;;24.50;4.27;;;;;;;2.23;95.84;100797.75;5031966;28;20025;-59
2021/12/07 05:09:37;;;;;;;22.73;3.92;;;;;;;2.22;95.70;100801.34;5032436;28;20044;-59
2021/12/07 05:12:23;;;;;;;18.00;3.80;;;;;;;2.15;95.76;100807.94;5032067;28;20029;-58
2021/12/07 05:14:58;;;;;;;22.03;3.83;;;;;;;2.11;96.05;100811.72;5028005;28;20120;-58
2021/12/07 05:17:54;;;;;;;22.13;4.10;;;;;;;2.09;96.31;100805.75;5033218;28;20041;-59
2021/12/07 05:38:59;;;;;;;19.17;4.17;;;;;;;1.74;96.03;100855.13;5020909;28;20049;-60
2021/12/07 05:41:26;;;;;;;19.53;4.67;;;;;;;1.70;96.43;100853.69;5024417;28;20038;-61
2021/12/07 05:43:51;;;;;;;22.93;4.90;;;;;;;1.67;96.82;100859.09;5024225;28;20029;-60
2021/12/07 05:46:17;;;;;;;21.43;6.00;;;;;;;1.64;96.67;100864.56;5023529;28;20107;-60
2021/12/07 05:48:42;;;;;;;25.07;6.20;;;;;;;1.61;96.74;100875.19;5023591;28;20065;-60
2021/12/07 05:51:08;;;;;;;23.20;6.27;;;;;;;1.56;96.86;100880.75;5023733;28;20156;-61
2021/12/07 05:53:35;;;;;;;27.07;6.60;;;;;;;1.55;96.88;100881.69;5024107;28;20064;-61
2021/12/07 05:56:01;;;;;;;24.17;7.03;;;;;;;1.51;96.92;100884.59;5026259;28;20029;-60
2021/12/07 05:58:26;;;;;;;21.37;7.30;;;;;;;1.46;97.26;100872.69;5021737;28;20453;-60
2021/12/07 06:00:57;;;;;;;28.60;7.00;;;;;;;1.46;97.01;100883.13;5022617;28;20537;-60
2021/12/07 06:03:27;;;;;;;23.10;6.90;;;;;;;1.47;97.32;100890.03;5024487;28;20048;-60
2021/12/07 06:05:53;;;;;;;26.13;7.27;;;;;;;1.47;97.15;100894.41;5021929;28;20025;-60
2021/12/07 06:08:19;;;;;;;24.93;7.30;;;;;;;1.45;96.99;100891.91;5026116;28;20931;-60
2021/12/07 06:10:44;;;;;;;26.00;7.97;;;;;;;1.44;97.03;100879.75;5024101;28;20036;-61
2021/12/07 06:13:10;;;;;;;23.70;7.70;;;;;;;1.42;96.76;100886.88;5027109;28;20041;-60
2021/12/07 06:15:38;;;;;;;24.80;7.60;;;;;;;1.39;97.14;100894.09;5025037;28;20474;-61
2021/12/07 06:18:04;;;;;;;27.20;7.90;;;;;;;1.37;96.94;100888.94;5021746;28;20547;-60
2021/12/07 06:20:30;;;;;;;24.73;7.40;;;;;;;1.34;96.85;100873.47;5023944;28;20456;-60
2021/12/07 06:22:55;;;;;;;29.87;8.07;;;;;;;1.31;97.17;100879.75;5022604;28;20029;-59
2021/12/07 06:25:21;;;;;;;28.60;7.80;;;;;;;1.28;96.84;100889.56;5026051;28;20017;-60
2021/12/07 06:27:46;;;;;;;25.73;7.87;;;;;;;1.28;96.94;100890.38;5022294;28;20109;-61
2021/12/07 06:30:13;;;;;;;24.77;7.27;;;;;;;1.29;97.20;100891.22;5021418;28;20029;-60
2021/12/07 06:32:39;;;;;;;27.20;7.90;;;;;;;1.27;97.29;100908.75;5025795;28;20581;-61
2021/12/07 06:35:06;;;;;;;32.83;8.07;;;;;;;1.25;97.30;100900.19;5025749;28;20160;-60
2021/12/07 06:37:31;;;;;;;24.20;7.33;;;;;;;1.25;97.68;100900.19;5025553;28;20048;-60
2021/12/07 06:39:56;;;;;;;27.93;8.07;;;;;;;1.26;97.59;100896.63;5022617;28;20030;-60
2021/12/07 06:42:21;;;;;;;28.30;7.60;;;;;;;1.27;97.02;100898.31;5026152;28;20041;-60
2021/12/07 06:44:47;;;;;;;28.70;8.23;;;;;;;1.23;96.95;100891.63;5021485;28;20033;-60
2021/12/07 06:47:12;;;;;;;29.67;7.90;;;;;;;1.22;97.07;100900.41;5021260;28;20034;-60
2021/12/07 06:49:37;;;;;;;27.20;8.00;;;;;;;1.20;97.46;100901.31;5021106;28;20120;-60
2021/12/07 06:52:03;;;;;;;26.43;8.03;;;;;;;1.24;97.67;100898.53;5022665;28;20037;-60
2021/12/07 06:54:29;;;;;;;31.17;8.03;;;;;;;1.22;97.81;100895.19;5021566;28;20042;-60
2021/12/07 06:56:54;;;;;;;33.70;8.60;;;;;;;1.22;97.74;100900.41;5022208;28;20029;-60
2021/12/07 06:59:20;;;;;;;28.50;7.87;;;;;;;1.24;97.72;100898.53;5020769;28;20038;-61
2021/12/07 07:01:46;;;;;;;30.37;8.60;;;;;;;1.23;97.66;100902.09;5025041;28;20069;-60
2021/12/07 07:04:14;;;;;;;32.10;8.23;;;;;;;1.25;97.71;100906.28;5023822;28;20033;-60
2021/12/07 07:06:40;;;;;;;30.73;8.47;;;;;;;1.23;97.74;100913.34;5026611;28;20045;-60
2021/12/07 07:09:05;;;;;;;33.50;8.60;;;;;;;1.21;97.78;100910.00;5028656;28;20026;-60
2021/12/07 07:11:31;;;;;;;25.70;7.67;;;;;;;1.22;98.20;100910.84;5027148;28;20474;-60
2021/12/07 07:13:57;;;;;;;28.10;7.97;;;;;;;1.19;97.71;100911.91;5028407;28;20148;-60
2021/12/07 07:16:23;;;;;;;27.27;8.07;;;;;;;1.21;97.74;100912.63;5023888;28;20116;-60
2021/12/07 07:18:49;;;;;;;31.03;8.37;;;;;;;1.21;97.77;100915.22;5027041;28;20117;-59
2021/12/07 07:21:14;;;;;;;28.93;8.40;;;;;;;1.20;98.05;100914.38;5030153;28;20072;-60
2021/12/07 07:23:39;;;;;;;29.77;8.60;;;;;;;1.20;97.78;100908.34;5030952;28;20038;-61
2021/12/07 07:26:05;;;;;;;28.50;8.20;;;;;;;1.18;97.91;100905.81;5027199;28;20025;-60
2021/12/07 07:28:33;;;;;;;33.33;8.90;;;;;;;1.17;97.73;100918.97;5029778;28;20057;-60
2021/12/07 07:30:59;;;;;;;29.90;8.87;;;;;;;1.16;97.99;100923.38;5028063;28;20042;-60
2021/12/07 07:33:25;;;;;;;27.90;9.17;;;;;;;1.16;97.75;100933.81;5030000;28;20037;-60
2021/12/07 07:35:51;;;;;;;29.27;8.80;;;;;;;1.22;98.05;100936.97;5028629;28;20082;-60
2021/12/07 07:38:17;;;;;;;27.63;9.30;;;;;;;1.22;98.02;100932.56;5030385;28;20406;-61
2021/12/07 07:40:45;;;;;;;25.53;8.80;;;;;;;1.26;97.99;100933.22;5029325;28;20047;-60
2021/12/07 07:43:10;;;;;;;31.87;8.93;;;;;;;1.28;97.88;100926.13;5029592;28;20029;-60
2021/12/07 07:45:36;;;;;;;28.70;8.93;;;;;;;1.29;98.18;100933.03;5027648;28;20052;-60
2021/12/07 07:48:01;;;;;;;24.93;9.43;;;;;;;1.30;97.89;100929.47;5028758;28;20091;-60
2021/12/07 07:50:26;;;;;;;28.53;9.17;;;;;;;1.33;98.34;100934.53;5027451;28;20033;-60
2021/12/07 07:52:52;;;;;;;32.57;9.20;;;;;;;1.35;98.04;100927.41;5030006;28;20040;-60
2021/12/07 07:55:17;;;;;;;28.10;9.00;;;;;;;1.38;98.20;100919.38;5022266;28;20079;-60
2021/12/07 07:57:43;;;;;;;30.03;8.80;;;;;;;1.40;97.84;100914.91;5017507;28;20037;-59
2021/12/07 08:00:11;;;;;;;25.80;8.53;;;;;;;1.38;97.70;100903.69;5019676;28;20116;-59
2021/12/07 08:02:37;;;;;;;26.67;8.57;;;;;;;1.40;97.57;100904.44;5022428;28;20136;-60
2021/12/07 08:05:03;;;;;;;31.17;9.10;;;;;;;1.40;97.83;100901.84;5024866;28;20565;-60
2021/12/07 08:07:28;;;;;;;26.93;8.60;;;;;;;1.40;97.63;100914.91;5028047;28;20422;-60
2021/12/07 08:09:53;;;;;;;26.47;8.33;;;;;;;1.42;97.56;100918.22;5031061;28;20041;-61
2021/12/07 08:12:19;;;;;;;29.77;7.97;;;;;;;1.43;97.78;100921.69;5027519;28;20685;-60
2021/12/07 08:14:44;;;;;;;29.90;8.80;;;;;;;1.44;97.62;100921.56;5026002;28;20056;-60
2021/12/07 08:17:09;;;;;;;27.70;8.70;;;;;;;1.46;97.78;100924.09;5022691;28;20411;-60
2021/12/07 08:19:35;;;;;;;35.07;9.03;;;;;;;1.46;97.74;100935.41;5023851;28;20417;-60
2021/12/07 08:22:00;;;;;;;28.07;8.00;;;;;;;1.45;97.38;100933.72;5030514;28;20041;-60
2021/12/07 08:24:25;;;;;;;27.37;8.10;;;;;;;1.47;97.66;100942.31;5028099;28;20069;-60
2021/12/07 08:26:51;;;;;;;23.63;8.03;;;;;;;1.46;97.35;100955.47;5029844;28;20064;-60
2021/12/07 08:29:16;;;;;;;26.50;8.07;;;;;;;1.45;97.50;100945.94;5030538;28;20033;-60
2021/12/07 08:31:43;;;;;;;29.03;7.93;;;;;;;1.41;97.30;100958.38;5024088;28;20426;-60
2021/12/07 08:34:08;;;;;;;22.67;7.30;;;;;;;1.40;97.46;100954.09;5032872;28;20041;-61
2021/12/07 08:36:33;;;;;;;25.40;8.00;;;;;;;1.40;97.22;100951.47;5031513;28;20095;-60
2021/12/07 08:38:59;;;;;;;26.50;6.93;;;;;;;1.40;97.35;100951.47;5031252;28;20112;-60
2021/12/07 08:41:24;;;;;;;25.73;6.97;;;;;;;1.43;96.73;100955.66;5028668;28;20045;-60
2021/12/07 08:43:50;;;;;;;23.77;6.80;;;;;;;1.39;97.02;100957.66;5032700;28;20384;-61
2021/12/07 08:46:17;;;;;;;20.70;6.83;;;;;;;1.39;97.02;100955.03;5031495;28;20075;-59
2021/12/07 08:48:43;;;;;;;21.13;6.73;;;;;;;1.38;97.03;100948.09;5031290;28;20057;-61
2021/12/07 08:51:10;;;;;;;21.63;6.57;;;;;;;1.38;97.05;100937.66;5030721;28;20029;-60
2021/12/07 08:53:42;;;;;;;21.80;7.10;;;;;;;1.40;97.47;100942.78;5031277;28;20075;-60
2021/12/07 09:01:36;;;;;;;28.40;7.27;;;;;;;1.53;97.44;100927.16;5030414;28;20116;-61
2021/12/07 09:04:02;;;;;;;22.27;6.77;;;;;;;1.58;97.25;100927.69;5032223;28;20116;-60
2021/12/07 09:06:29;;;;;;;16.00;6.50;;;;;;;1.60;97.09;100921.44;5029955;28;20029;-60
2021/12/07 09:08:54;;;;;;;20.40;6.63;;;;;;;1.63;97.22;100915.13;5032424;28;20481;-60
2021/12/07 09:11:21;;;;;;;22.10;6.73;;;;;;;1.67;96.64;100913.19;5030799;28;20099;-60
2021/12/07 09:13:46;;;;;;;20.67;6.20;;;;;;;1.71;96.83;100912.88;5032196;28;20909;-60
2021/12/07 09:16:14;;;;;;;22.00;6.50;;;;;;;1.73;96.64;100910.16;5029765;28;20443;-60
2021/12/07 09:18:41;;;;;;;21.83;6.40;;;;;;;1.79;96.58;100915.00;5030022;28;20068;-60
2021/12/07 09:21:07;;;;;;;21.13;6.90;;;;;;;1.80;96.68;100915.81;5027033;28;20029;-60
2021/12/07 09:23:32;;;;;;;22.07;6.83;;;;;;;1.82;96.65;100927.03;5032920;28;20036;-60
2021/12/07 09:25:57;;;;;;;20.07;6.50;;;;;;;1.84;96.61;100922.50;5026337;28;20044;-60
2021/12/07 09:28:23;;;;;;;18.60;6.90;;;;;;;1.86;96.41;100923.25;5036675;28;20029;-59
2021/12/07 09:30:51;;;;;;;19.13;6.60;;;;;;;1.91;96.08;100920.34;5031451;28;20153;-61
2021/12/07 09:33:26;;;;;;;26.30;6.43;;;;;;;1.93;96.51;100926.28;5029768;28;20052;-60
2021/12/07 09:35:52;;;;;;;19.83;6.00;;;;;;;1.97;96.31;100922.53;5037393;28;20040;-60
2021/12/07 09:38:17;;;;;;;23.50;6.60;;;;;;;1.98;96.47;100925.03;5030994;28;20038;-61
2021/12/07 09:40:44;;;;;;;21.30;6.47;;;;;;;2.04;96.34;100912.47;5029693;28;20390;-60
2021/12/07 09:43:12;;;;;;;22.37;6.93;;;;;;;2.06;96.09;100921.09;5038756;28;20551;-60
2021/12/07 09:45:38;;;;;;;19.03;6.20;;;;;;;2.09;96.35;100915.63;5042969;28;20080;-60
2021/12/07 09:48:06;;;;;;;23.33;6.77;;;;;;;2.11;95.93;100911.13;5034538;28;20091;-60
2021/12/07 09:50:34;;;;;;;21.47;5.87;;;;;;;2.18;96.21;100922.88;5030454;28;20049;-60
2021/12/07 09:53:00;;;;;;;21.00;6.57;;;;;;;2.22;96.14;100926.13;5039217;28;20021;-60
2021/12/07 09:55:28;;;;;;;21.80;6.13;;;;;;;2.26;95.92;100928.41;5032325;28;20029;-60
2021/12/07 09:57:53;;;;;;;20.30;5.93;;;;;;;2.31;95.43;100919.41;5029757;28;20438;-60
2021/12/07 10:00:22;;;;;;;19.67;6.27;;;;;;;2.31;95.97;100908.94;5032697;28;20061;-60
2021/12/07 10:02:48;;;;;;;22.83;6.73;;;;;;;2.33;95.17;100907.91;5034475;28;20037;-60
2021/12/07 10:05:16;;;;;;;23.83;6.03;;;;;;;2.38;95.11;100912.81;5034359;28;20065;-59
2021/12/07 10:07:42;;;;;;;23.13;6.60;;;;;;;2.41;95.38;100912.56;5027692;28;20021;-60
2021/12/07 10:10:17;;;;;;;23.73;6.00;;;;;;;2.41;95.47;100909.97;5027822;28;20052;-58
2021/12/07 10:12:42;;;;;;;22.17;6.70;;;;;;;2.47;94.87;100908.72;5022527;28;20033;-58
2021/12/07 10:15:09;;;;;;;24.03;6.80;;;;;;;2.50;95.19;100909.34;5025342;28;20033;-57
2021/12/07 10:17:38;;;;;;;18.67;6.00;;;;;;;2.52;95.24;100896.97;5024949;28;20478;-58
2021/12/07 10:20:39;;;;;;;17.57;6.30;;;;;;;2.59;95.11;100891.28;5025061;28;20480;-58
2021/12/07 10:23:36;;;;;;;20.67;5.97;;;;;;;2.61;95.09;100894.66;5023747;28;20033;-58
2021/12/07 10:26:16;;;;;;;21.67;5.87;;;;;;;2.65;94.63;100896.09;5038744;28;20030;-57
2021/12/07 10:28:48;;;;;;;21.97;6.00;;;;;;;2.68;95.11;100891.47;5030419;28;20064;-58
2021/12/07 10:31:38;;;;;;;20.93;5.97;;;;;;;2.75;95.27;100885.81;5029355;28;20064;-58
2021/12/07 10:34:19;;;;;;;20.20;6.07;;;;;;;2.76;94.94;100883.09;5028881;28;20044;-56
2021/12/07 10:36:47;;;;;;;19.33;5.60;;;;;;;2.79;94.32;100882.03;5026058;28;20060;-58
2021/12/07 10:39:23;;;;;;;21.17;6.00;;;;;;;2.81;93.97;100870.50;5034147;28;20021;-58
2021/12/07 10:41:52;;;;;;;20.93;5.33;;;;;;;2.88;94.03;100875.31;5027352;28;20026;-57
2021/12/07 10:44:20;;;;;;;19.40;5.60;;;;;;;2.90;94.07;100866.38;5031041;28;20033;-58
2021/12/07 10:47:01;;;;;;;19.23;5.32;;;;;;;2.94;93.04;100864.38;5032964;28;20120;-58
2021/12/07 10:49:50;;;;;;;20.30;5.67;;;;;;;2.96;93.38;100859.84;5023186;28;20025;-56
2021/12/07 10:52:30;;;;;;;21.53;5.83;;;;;;;2.97;93.77;100848.44;5034113;28;20029;-56
2021/12/07 10:55:05;;;;;;;21.37;5.70;;;;;;;3.03;93.68;100855.88;5026330;28;20025;-57
2021/12/07 10:57:38;;;;;;;19.97;5.80;;;;;;;3.08;92.56;100845.88;5027844;28;20029;-57
2021/12/07 11:00:23;;;;;;;18.75;5.40;;;;;;;3.13;92.62;100848.16;5029116;28;20395;-58
2021/12/07 11:03:06;;;;;;;20.53;5.90;;;;;;;3.14;92.42;100822.78;5032800;28;20055;-58
2021/12/07 11:05:36;;;;;;;19.40;5.70;;;;;;;3.13;92.17;100813.25;5031477;28;20040;-58
2021/12/07 11:08:05;;;;;;;16.13;5.80;;;;;;;3.23;92.11;100806.38;5027104;28;20069;-58
2021/12/07 11:10:33;;;;;;;18.40;6.07;;;;;;;3.26;92.81;100798.28;5032874;28;20023;-57
2021/12/07 11:15:36;;;;;;;17.40;6.22;;;;;;;3.31;92.61;100793.53;5028848;28;20479;-57
2021/12/07 11:18:06;;;;;;;18.75;5.85;;;;;;;3.30;91.24;100794.50;5035627;28;20616;-57
2021/12/07 11:20:33;;;;;;;17.90;5.53;;;;;;;3.35;91.41;100794.97;5032974;28;20029;-57
2021/12/07 11:23:03;;;;;;;23.25;5.88;;;;;;;3.35;91.64;100784.50;5031454;28;20087;-57
2021/12/07 11:31:36;;;;;;;21.77;6.80;;;;;;;3.46;90.84;100782.84;5031052;28;20120;-58
2021/12/07 11:34:11;;;;;;;25.50;7.80;;;;;;;3.50;90.35;100787.75;5029702;28;20044;-58
2021/12/07 11:36:41;;;;;;;28.48;7.53;;;;;;;3.48;90.27;100783.56;5028464;28;20091;-57
2021/12/07 11:39:31;;;;;;;22.08;7.50;;;;;;;3.52;90.21;100784.16;5031120;28;20041;-61
2021/12/07 11:42:04;;;;;;;23.13;7.20;;;;;;;3.53;89.48;100784.06;5026521;28;20049;-61
2021/12/07 11:44:32;;;;;;;25.60;7.80;;;;;;;3.52;88.74;100774.53;5042649;28;20065;-61
2021/12/07 11:47:00;;;;;;;22.48;7.53;;;;;;;3.49;89.30;100778.22;5029061;28;20068;-61
2021/12/07 11:49:28;;;;;;;27.48;7.70;;;;;;;3.56;88.56;100770.69;5027982;28;20042;-61
2021/12/07 11:51:56;;;;;;;20.73;7.30;;;;;;;3.57;88.03;100767.16;5026963;28;20026;-61
2021/12/07 11:54:26;;;;;;;24.25;7.15;;;;;;;3.60;87.88;100766.91;5034962;28;20092;-61
2021/12/07 11:56:52;;;;;;;20.13;6.43;;;;;;;3.60;88.49;100756.41;5036408;28;20029;-61
2021/12/07 11:59:18;;;;;;;23.67;6.55;;;;;;;3.60;88.69;100756.41;5025263;28;20055;-61
2021/12/07 12:01:45;;;;;;;16.60;5.60;;;;;;;3.63;88.21;100750.94;5024931;28;20449;-61
2021/12/07 12:04:11;;;;;;;18.95;5.43;;;;;;;3.67;87.37;100741.06;5033322;28;20091;-61
2021/12/07 12:06:36;;;;;;;23.45;6.30;;;;;;;3.73;86.65;100744.97;5034255;28;20030;-61
2021/12/07 12:09:04;;;;;;;17.13;5.57;;;;;;;3.72;86.78;100738.06;5033744;28;20033;-61
2021/12/07 12:12:06;;;;;;;20.90;5.90;;;;;;;3.77;87.76;100730.69;5025318;28;20060;-60
2021/12/07 12:14:41;;;;;;;19.33;6.00;;;;;;;3.75;87.54;100733.41;5033731;28;20053;-59
2021/12/07 12:17:34;;;;;;;18.90;5.53;;;;;;;3.81;88.29;100732.13;5031959;28;20079;-58
2021/12/07 12:20:18;;;;;;;19.33;5.53;;;;;;;3.84;88.03;100720.56;5032392;28;20128;-59
2021/12/07 12:23:18;;;;;;;20.75;5.70;;;;;;;3.86;87.72;100706.31;5030606;28;20114;-57
2021/12/07 12:25:43;;;;;;;19.63;4.97;;;;;;;3.89;86.96;100708.72;5035395;28;20029;-57
2021/12/07 12:28:08;;;;;;;19.80;5.18;;;;;;;3.90;87.17;100699.06;5031328;28;20037;-58
2021/12/07 12:30:39;;;;;;;17.27;4.78;;;;;;;3.89;86.42;100703.47;5037289;28;20029;-56
2021/12/07 12:33:07;;;;;;;17.10;4.70;;;;;;;3.90;86.87;100689.41;5034337;28;20029;-58
2021/12/07 12:35:40;;;;;;;17.25;4.50;;;;;;;3.95;87.32;100680.34;5030623;28;20087;-58
2021/12/07 12:38:24;;;;;;;15.45;5.03;;;;;;;3.99;87.26;100677.34;5030863;28;20116;-57
2021/12/07 12:40:59;;;;;;;17.58;4.50;;;;;;;4.00;87.15;100684.25;5032466;28;20457;-58
2021/12/07 12:43:50;;;;;;;17.98;4.40;;;;;;;4.04;87.43;100677.81;5041907;28;20032;-57
2021/12/07 12:46:18;;;;;;;17.73;4.50;;;;;;;4.03;86.16;100668.28;5030183;28;20486;-58
2021/12/07 12:48:48;;;;;;;17.17;4.45;;;;;;;4.09;86.20;100651.19;5029850;28;20525;-59
2021/12/07 12:51:14;;;;;;;17.25;4.20;;;;;;;4.07;86.32;100640.00;5036136;28;20046;-62
2021/12/07 12:53:42;;;;;;;18.10;4.18;;;;;;;4.03;85.26;100630.69;5039025;28;20033;-62
2021/12/07 12:56:10;;;;;;;12.70;3.83;;;;;;;4.05;84.85;100628.81;5032635;28;20546;-61
2021/12/07 12:58:48;;;;;;;16.50;3.90;;;;;;;4.05;85.47;100610.44;5036786;28;20548;-62
2021/12/07 13:01:17;;;;;;;19.45;4.25;;;;;;;4.05;85.83;100602.56;5033808;28;20026;-62
2021/12/07 13:03:47;;;;;;;15.25;3.75;;;;;;;4.06;85.87;100603.38;5036624;28;20047;-62
2021/12/07 13:06:41;;;;;;;14.93;3.50;;;;;;;4.05;85.06;100581.56;5031518;28;20041;-62
2021/12/07 13:09:19;;;;;;;15.30;3.45;;;;;;;4.07;84.06;100573.53;5026871;28;20471;-62
2021/12/07 13:12:02;;;;;;;16.40;3.33;;;;;;;4.09;85.01;100556.72;5037348;28;20028;-62
2021/12/07 13:14:36;;;;;;;13.82;3.50;;;;;;;4.11;85.00;100539.06;5037929;28;20025;-62
2021/12/07 13:17:06;;;;;;;16.55;3.70;;;;;;;4.09;84.10;100540.97;5037794;28;20071;-62
2021/12/07 13:20:09;;;;;;;20.40;4.43;;;;;;;4.10;85.46;100542.63;5038216;28;20017;-62
2021/12/07 13:22:37;;;;;;;14.93;3.80;;;;;;;4.12;84.47;100551.22;5037738;28;20029;-61